METAR Data

Data at: 0537 UTC 18 Oct 2018

METAR for:KEWR (Newark Intl, NJ, US)
Text:KEWR 180451Z 29009KT 10SM FEW050 08/M02 A3016 RMK AO2 SLP211 T00781017 401780056
Temperature: 7.8°C ( 46°F)
Dewpoint: -1.7°C ( 29°F) [RH = 51%]
Pressure (altimeter):30.16 inches Hg (1021.4 mb) [Sea level pressure: 1021.1 mb]
Winds:from the WNW (290 degrees) at 10 MPH (9 knots; 4.6 m/s)
Visibility:10 or more sm (16+ km)
Ceiling:at least 12,000 feet AGL
Clouds: few clouds at 5000 feet AGL